This is the latest recevied weather packets stored in our database for station/object KMASWX. If no packets are shown the sender has not sent any weather packets the latest 10 day(s).
| Time | Temp. | Humidity | Pressure | Rain* | Wind** | Luminosity | Snow |
|---|---|---|---|---|---|---|---|
| 1778137956 | 15° C | 60% | - | 0 mm | - | - | - |
| 1778137348 | 15° C | 58% | - | 0 mm | - | - | - |
| 1778137043 | 15° C | 58% | - | 0 mm | - | - | - |
| 1778136736 | 15.56° C | 58% | - | 0 mm | - | - | - |
| 1778136432 | 16.11° C | 55% | - | 0 mm | - | - | - |
| 1778136126 | 16.67° C | 54% | - | 0 mm | - | - | - |
| 1778135822 | 16.67° C | 53% | - | 0 mm | - | - | - |
| 1778135518 | 16.67° C | 54% | - | 0 mm | - | - | - |
| 1778135212 | 16.11° C | 57% | - | 0 mm | - | - | - |
| 1778134908 | 16.11° C | 55% | - | 0 mm | - | - | - |
| 1778134605 | 16.11° C | 56% | - | 0 mm | - | - | - |
| 1778134298 | 15.56° C | 57% | - | 0 mm | - | - | - |
| 1778133994 | 16.11° C | 55% | - | 0 mm | - | - | - |
| 1778133691 | 16.67° C | 55% | - | 0 mm | - | - | - |
| 1778133388 | 16.67° C | 55% | - | 0 mm | - | - | - |
| 1778133084 | 16.67° C | 56% | - | 0 mm | - | - | - |
| 1778132777 | 16.67° C | 56% | - | 0 mm | - | - | - |
| 1778132474 | 16.67° C | 55% | - | 0 mm | - | - | - |
| 1778132170 | 17.22° C | 54% | - | 0 mm | - | - | - |
| 1778131867 | 16.67° C | 55% | - | 0 mm | - | - | - |
| 1778131560 | 17.78° C | 52% | - | 0 mm | - | - | - |
| 1778131257 | 17.78° C | 52% | - | 0 mm | - | - | - |
| 1778130953 | 17.78° C | 52% | - | 0 mm | - | - | - |
| 1778130343 | 17.78° C | 51% | - | 0 mm | - | - | - |
| 1778130039 | 18.33° C | 50% | - | 0 mm | - | - | - |
* Rain latest 24 hours (hover to see other rain measurements)
** Current wind speed in m/s (hover to see current wind gust speed)